createdAt,value
2022-11-25T00:01:15.937Z,27.81
2022-11-25T00:03:42.334Z,27.82
2022-11-25T00:06:08.677Z,27.81
2022-11-25T00:08:35.120Z,27.76
2022-11-25T00:11:01.465Z,27.82
2022-11-25T00:13:27.885Z,27.83
2022-11-25T00:15:54.230Z,27.89
2022-11-25T00:18:20.622Z,27.87
2022-11-25T00:20:46.972Z,27.91
2022-11-25T00:23:13.355Z,28.00
2022-11-25T00:25:40.893Z,27.96
2022-11-25T00:28:06.086Z,27.97
2022-11-25T00:30:32.432Z,28.03
2022-11-25T00:32:58.823Z,28.00
2022-11-25T00:35:25.173Z,28.06
2022-11-25T00:37:51.557Z,28.06
2022-11-25T00:40:17.906Z,28.04
2022-11-25T00:42:44.309Z,27.99
2022-11-25T00:45:10.656Z,27.99
2022-11-25T00:47:37.038Z,28.11
2022-11-25T00:50:03.410Z,28.03
2022-11-25T00:52:29.874Z,27.99
2022-11-25T00:54:56.211Z,27.99
2022-11-25T00:57:22.602Z,28.08
2022-11-25T00:59:48.944Z,28.10
2022-11-25T01:02:15.388Z,28.05
2022-11-25T01:04:41.687Z,28.03
2022-11-25T01:07:08.228Z,28.01
2022-11-25T01:09:34.432Z,28.04
2022-11-25T01:12:00.831Z,28.08
2022-11-25T01:14:27.171Z,28.05
2022-11-25T01:16:53.625Z,28.07
2022-11-25T01:19:20.055Z,28.08
2022-11-25T01:21:46.322Z,28.03
2022-11-25T01:24:12.665Z,28.11
2022-11-25T01:26:39.088Z,28.11
2022-11-25T01:29:05.426Z,28.16
2022-11-25T01:31:31.880Z,28.08
2022-11-25T01:33:58.194Z,28.12
2022-11-25T01:36:24.578Z,28.13
2022-11-25T01:38:50.919Z,28.09
2022-11-25T01:41:17.315Z,28.09
2022-11-25T01:43:43.663Z,28.09
2022-11-25T01:46:10.143Z,28.18
2022-11-25T01:48:36.394Z,28.19
2022-11-25T01:51:02.739Z,28.18
2022-11-25T01:53:29.135Z,28.18
2022-11-25T01:55:55.475Z,28.20
2022-11-25T01:58:21.886Z,28.14
2022-11-25T02:00:48.295Z,28.19
2022-11-25T02:03:14.624Z,28.24
2022-11-25T02:05:40.965Z,28.30
2022-11-25T02:08:07.386Z,28.31
2022-11-25T02:10:33.730Z,28.31
2022-11-25T02:13:00.123Z,28.31
2022-11-25T02:15:26.467Z,28.28
2022-11-25T02:17:52.894Z,28.39
2022-11-25T02:20:19.242Z,28.38
2022-11-25T02:22:45.624Z,28.36
2022-11-25T02:25:11.972Z,28.34
2022-11-25T02:27:38.356Z,28.34
2022-11-25T02:30:04.695Z,28.43
2022-11-25T02:32:31.084Z,28.36
2022-11-25T02:34:57.467Z,28.35
2022-11-25T02:37:23.851Z,28.41
2022-11-25T02:39:50.195Z,28.44
2022-11-25T02:42:16.580Z,28.45
2022-11-25T02:44:42.925Z,28.42
2022-11-25T02:47:09.322Z,28.40
2022-11-25T02:49:35.667Z,28.46
2022-11-25T02:52:02.056Z,28.48
2022-11-25T02:54:28.398Z,28.48
2022-11-25T02:56:54.819Z,28.48
2022-11-25T02:59:21.171Z,28.47
2022-11-25T03:01:47.630Z,28.56
2022-11-25T03:04:13.901Z,28.58
2022-11-25T03:06:40.289Z,28.58
2022-11-25T03:09:06.629Z,28.54
2022-11-25T03:11:33.016Z,28.47
2022-11-25T03:13:59.355Z,28.38
2022-11-25T03:16:25.846Z,28.24
2022-11-25T03:18:52.119Z,28.19
2022-11-25T03:21:18.520Z,28.15
2022-11-25T03:23:44.937Z,28.09
2022-11-25T03:26:11.361Z,28.09
2022-11-25T03:28:37.701Z,28.07
2022-11-25T03:31:04.102Z,28.02
2022-11-25T03:33:30.455Z,27.98
2022-11-25T03:35:56.830Z,27.96
2022-11-25T03:38:23.174Z,27.91
2022-11-25T03:40:49.570Z,27.86
2022-11-25T03:43:15.918Z,27.86
2022-11-25T03:45:42.336Z,27.82
2022-11-25T03:48:08.647Z,27.84
2022-11-25T03:50:35.030Z,27.82
2022-11-25T03:53:01.384Z,27.81
2022-11-25T03:55:27.788Z,27.76
2022-11-25T03:57:54.153Z,27.73
2022-11-25T04:00:20.532Z,27.71
2022-11-25T04:02:46.973Z,27.65
2022-11-25T04:05:13.332Z,27.63
2022-11-25T04:07:40.761Z,27.60
2022-11-25T04:10:06.063Z,27.58
2022-11-25T04:12:32.408Z,27.54
2022-11-25T04:14:58.794Z,27.52
2022-11-25T04:17:25.172Z,27.47
2022-11-25T04:19:51.559Z,27.49
2022-11-25T04:22:17.901Z,27.45
2022-11-25T04:24:44.311Z,27.44
2022-11-25T04:27:10.656Z,27.37
2022-11-25T04:29:37.053Z,27.36
2022-11-25T04:32:03.396Z,27.33
2022-11-25T04:34:29.780Z,27.28
2022-11-25T04:36:56.135Z,27.27
2022-11-25T04:39:22.531Z,27.24
2022-11-25T04:41:48.881Z,27.22
2022-11-25T04:44:15.268Z,27.15
2022-11-25T04:46:41.698Z,27.10
2022-11-25T04:49:07.995Z,27.02
2022-11-25T04:51:34.351Z,26.90
2022-11-25T04:54:00.738Z,26.89
2022-11-25T04:56:27.081Z,26.84
2022-11-25T04:58:53.458Z,26.79
2022-11-25T05:01:19.900Z,26.75
2022-11-25T05:03:50.643Z,26.69
2022-11-25T05:06:12.599Z,26.60
2022-11-25T05:08:38.983Z,26.51
2022-11-25T05:11:05.364Z,26.48
2022-11-25T05:13:33.613Z,26.45
2022-11-25T05:15:59.786Z,26.44
2022-11-25T05:18:24.517Z,26.46
2022-11-25T05:20:50.857Z,26.41
2022-11-25T05:23:18.886Z,26.23
2022-11-25T05:25:43.588Z,26.16
2022-11-25T05:28:09.976Z,25.91
2022-11-25T05:30:36.464Z,25.90
2022-11-25T05:33:02.744Z,25.83
2022-11-25T05:35:29.115Z,25.76
2022-11-25T05:37:55.506Z,25.74
2022-11-25T05:40:22.866Z,24.87
2022-11-25T05:42:48.228Z,25.38
2022-11-25T05:45:14.583Z,25.52
2022-11-25T05:47:40.980Z,25.63
2022-11-25T05:50:09.288Z,25.64
2022-11-25T05:52:33.720Z,25.80
2022-11-25T05:55:00.061Z,25.88
2022-11-25T05:57:26.450Z,25.80
2022-11-25T05:59:52.795Z,25.68
2022-11-25T06:02:19.234Z,25.57
2022-11-25T06:04:45.532Z,25.22
2022-11-25T06:07:11.970Z,25.08
2022-11-25T06:09:38.254Z,25.08
2022-11-25T06:12:04.652Z,25.06
2022-11-25T06:14:31.042Z,25.32
2022-11-25T06:16:57.463Z,24.84
2022-11-25T06:19:23.811Z,24.87
2022-11-25T06:21:50.196Z,24.75
2022-11-25T06:24:16.539Z,24.54
2022-11-25T06:26:42.928Z,24.36
2022-11-25T06:29:09.303Z,24.30
2022-11-25T06:31:35.737Z,24.22
2022-11-25T06:34:02.068Z,24.16
2022-11-25T06:36:28.457Z,24.23
2022-11-25T06:38:54.855Z,24.06
2022-11-25T06:41:21.251Z,24.14
2022-11-25T06:43:47.594Z,24.24
2022-11-25T06:46:14.077Z,24.40
2022-11-25T06:48:40.352Z,27.28
2022-11-25T06:51:06.728Z,28.76
2022-11-25T06:53:33.075Z,28.47
2022-11-25T06:55:59.480Z,28.54
2022-11-25T06:58:35.573Z,28.60
2022-11-25T07:00:52.216Z,28.59
2022-11-25T07:03:18.598Z,28.74
2022-11-25T07:05:44.943Z,28.89
2022-11-25T07:08:11.294Z,28.94
2022-11-25T07:10:37.727Z,28.94
2022-11-25T07:13:04.130Z,28.76
2022-11-25T07:15:30.591Z,28.95
2022-11-25T07:17:56.870Z,29.11
2022-11-25T07:20:23.255Z,28.75
2022-11-25T07:22:49.607Z,28.70
2022-11-25T07:25:16.006Z,28.60
2022-11-25T07:27:42.363Z,29.02
2022-11-25T07:31:09.454Z,28.69
2022-11-25T07:32:35.090Z,28.61
2022-11-25T07:35:01.487Z,28.89
2022-11-25T07:37:27.885Z,28.95
2022-11-25T07:39:54.272Z,28.82
2022-11-25T07:42:20.625Z,28.94
2022-11-25T07:44:47.032Z,29.14
2022-11-25T07:47:13.380Z,29.00
2022-11-25T07:49:39.842Z,29.17
2022-11-25T07:52:06.123Z,29.40
2022-11-25T07:54:32.570Z,29.34
2022-11-25T07:56:58.921Z,29.67
2022-11-25T07:59:25.317Z,28.92
2022-11-25T08:01:51.695Z,29.06
2022-11-25T08:04:20.539Z,29.17
2022-11-25T08:06:44.418Z,28.89
2022-11-25T08:09:10.814Z,29.00
2022-11-25T08:11:37.155Z,29.07
2022-11-25T08:14:05.258Z,28.82
2022-11-25T08:16:30.040Z,29.08
2022-11-25T08:18:56.364Z,28.89
2022-11-25T08:21:22.698Z,28.77
2022-11-25T08:23:49.085Z,28.89
2022-11-25T08:26:15.442Z,28.86
2022-11-25T08:28:41.816Z,29.05
2022-11-25T08:31:08.188Z,29.02
2022-11-25T08:33:34.552Z,29.50
2022-11-25T08:36:00.901Z,29.48
2022-11-25T08:38:27.285Z,29.21
2022-11-25T08:40:53.631Z,29.53
2022-11-25T08:43:22.770Z,29.15
2022-11-25T08:45:46.397Z,29.15
2022-11-25T08:48:12.791Z,29.39
2022-11-25T08:50:39.147Z,29.33
2022-11-25T08:53:05.538Z,29.42
2022-11-25T08:55:31.893Z,29.39
2022-11-25T08:57:58.289Z,29.54
2022-11-25T09:00:24.626Z,29.79
2022-11-25T09:02:51.056Z,29.61
2022-11-25T09:05:17.370Z,29.58
2022-11-25T09:07:43.802Z,29.55
2022-11-25T09:10:10.112Z,29.66
2022-11-25T09:12:36.508Z,29.66
2022-11-25T09:15:02.873Z,29.68
2022-11-25T09:17:29.255Z,29.47
2022-11-25T09:19:55.604Z,29.39
2022-11-25T09:22:21.990Z,29.39
2022-11-25T09:24:48.361Z,29.54
2022-11-25T09:27:14.745Z,29.52
2022-11-25T09:29:41.089Z,29.45
2022-11-25T09:32:09.829Z,29.21
2022-11-25T09:34:36.342Z,29.18
2022-11-25T09:37:02.558Z,29.18
2022-11-25T09:39:28.938Z,29.20
2022-11-25T09:41:55.322Z,29.24
2022-11-25T09:44:21.706Z,29.24
2022-11-25T09:46:48.109Z,29.11
2022-11-25T09:49:14.433Z,29.17
2022-11-25T09:51:40.820Z,29.13
2022-11-25T09:54:07.268Z,29.11
2022-11-25T09:56:33.664Z,29.14
2022-11-25T09:59:00.008Z,29.05
2022-11-25T10:01:26.413Z,28.98
2022-11-25T10:03:52.758Z,28.88
2022-11-25T10:06:19.191Z,28.87
2022-11-25T10:08:45.491Z,28.95
2022-11-25T10:11:11.911Z,29.09
2022-11-25T10:13:38.269Z,29.14
2022-11-25T10:16:04.713Z,29.36
2022-11-25T10:18:31.021Z,29.37
2022-11-25T10:20:57.417Z,29.34
2022-11-25T10:23:28.123Z,29.27
2022-11-25T10:25:50.201Z,29.18
2022-11-25T10:28:16.545Z,29.23
2022-11-25T10:30:42.944Z,29.18
2022-11-25T10:33:09.279Z,29.05
2022-11-25T10:35:35.666Z,29.02
2022-11-25T10:38:02.008Z,29.00
2022-11-25T10:40:28.394Z,29.11
2022-11-25T10:42:54.747Z,29.14
2022-11-25T10:45:21.150Z,29.12
2022-11-25T10:47:47.525Z,29.13
2022-11-25T10:50:13.925Z,29.08
2022-11-25T10:52:40.273Z,29.08
2022-11-25T10:55:06.660Z,29.07
2022-11-25T10:57:33.015Z,29.11
2022-11-25T10:59:59.405Z,29.14
2022-11-25T11:02:25.799Z,29.26
2022-11-25T11:04:52.160Z,29.37
2022-11-25T11:07:18.566Z,29.26
2022-11-25T11:09:44.908Z,29.30
2022-11-25T11:12:11.255Z,29.49
2022-11-25T11:14:38.029Z,29.49
2022-11-25T11:17:03.985Z,29.40
2022-11-25T11:19:30.384Z,29.49
2022-11-25T11:21:56.728Z,29.53
2022-11-25T11:24:23.125Z,29.46
2022-11-25T11:26:49.491Z,29.41
2022-11-25T11:29:15.876Z,29.35
2022-11-25T11:31:42.299Z,29.25
2022-11-25T11:34:08.610Z,29.18
2022-11-25T11:36:34.961Z,29.09
2022-11-25T11:39:01.348Z,28.95
2022-11-25T11:41:27.740Z,28.95
2022-11-25T11:43:54.124Z,28.98
2022-11-25T11:46:20.497Z,28.98
2022-11-25T11:48:51.556Z,29.07
2022-11-25T11:51:13.233Z,29.09
2022-11-25T11:53:39.640Z,29.05
2022-11-25T11:56:33.470Z,28.85
2022-11-25T11:58:32.373Z,28.79
2022-11-25T12:00:58.730Z,28.82
2022-11-25T12:03:25.301Z,28.90
2022-11-25T12:05:51.543Z,29.01
2022-11-25T12:08:17.936Z,29.06
2022-11-25T12:10:44.278Z,29.10
2022-11-25T12:13:10.670Z,29.09
2022-11-25T12:15:37.071Z,29.07
2022-11-25T12:18:03.417Z,29.11
2022-11-25T12:20:29.796Z,29.04
2022-11-25T12:22:56.141Z,28.99
2022-11-25T12:25:22.557Z,28.98
2022-11-25T12:27:48.896Z,29.02
2022-11-25T12:30:16.291Z,29.02
2022-11-25T12:32:41.659Z,29.02
2022-11-25T12:35:08.040Z,28.95
2022-11-25T12:37:34.434Z,29.26
2022-11-25T12:40:00.815Z,29.13
2022-11-25T12:42:27.175Z,29.27
2022-11-25T12:44:53.558Z,29.26
2022-11-25T12:47:19.900Z,29.30
2022-11-25T12:49:46.294Z,29.14
2022-11-25T12:52:12.632Z,29.01
2022-11-25T12:54:39.098Z,29.02
2022-11-25T12:57:05.376Z,29.08
2022-11-25T13:02:14.083Z,29.05
2022-11-25T13:04:40.404Z,29.16
2022-11-25T13:07:06.850Z,29.20
2022-11-25T13:09:33.198Z,29.13
2022-11-25T13:11:59.883Z,29.11
2022-11-25T13:14:26.290Z,29.11
2022-11-25T13:16:53.100Z,29.02
2022-11-25T13:19:18.759Z,28.96
2022-11-25T13:21:45.172Z,28.95
2022-11-25T13:24:11.523Z,28.98
2022-11-25T13:26:37.919Z,29.01
2022-11-25T13:29:04.292Z,29.05
2022-11-25T13:31:30.707Z,29.09
2022-11-25T13:33:57.076Z,29.00
2022-11-25T13:36:23.463Z,29.02
2022-11-25T13:38:49.806Z,28.92
2022-11-25T13:41:16.265Z,28.89
2022-11-25T13:43:42.611Z,28.72
2022-11-25T13:46:09.113Z,28.75
2022-11-25T13:48:35.343Z,28.76
2022-11-25T13:51:10.969Z,28.79
2022-11-25T13:53:28.190Z,28.79
2022-11-25T13:55:54.608Z,28.88
2022-11-25T13:58:20.950Z,28.88
2022-11-25T14:00:47.336Z,29.02
2022-11-25T14:03:13.718Z,29.11
2022-11-25T14:05:40.113Z,29.35
2022-11-25T14:08:06.475Z,29.34
2022-11-25T14:10:32.837Z,29.37
2022-11-25T14:12:59.179Z,29.23
2022-11-25T14:15:25.580Z,29.14
2022-11-25T14:17:51.927Z,28.79
2022-11-25T14:20:18.324Z,28.98
2022-11-25T14:22:44.671Z,29.05
2022-11-25T14:25:11.091Z,28.83
2022-11-25T14:27:37.426Z,28.94
2022-11-25T14:30:03.822Z,28.83
2022-11-25T14:32:30.166Z,28.91
2022-11-25T14:34:56.593Z,28.83
2022-11-25T14:37:22.934Z,28.76
2022-11-25T14:39:49.359Z,28.91
2022-11-25T14:42:15.706Z,28.82
2022-11-25T14:44:42.097Z,28.81
2022-11-25T14:47:08.471Z,28.87
2022-11-25T14:50:00.185Z,28.70
2022-11-25T14:52:01.232Z,28.79
2022-11-25T14:54:27.626Z,28.72
2022-11-25T14:56:53.977Z,28.63
2022-11-25T14:59:20.366Z,28.71
2022-11-25T15:01:46.797Z,28.71
2022-11-25T15:04:13.255Z,28.82
2022-11-25T15:06:39.582Z,28.73
2022-11-25T15:09:05.968Z,28.79
2022-11-25T15:11:32.320Z,28.75
2022-11-25T15:13:58.742Z,28.82
2022-11-25T15:16:25.154Z,28.85
2022-11-25T15:18:51.482Z,28.85
2022-11-25T15:21:17.830Z,28.89
2022-11-25T15:23:44.261Z,28.84
2022-11-25T15:26:10.618Z,28.86
2022-11-25T15:28:38.282Z,28.99
2022-11-25T15:31:03.357Z,28.98
2022-11-25T15:33:29.747Z,28.92
2022-11-25T15:35:56.085Z,28.91
2022-11-25T15:38:22.469Z,28.85
2022-11-25T15:40:48.816Z,28.91
2022-11-25T15:43:15.221Z,28.82
2022-11-25T15:45:41.666Z,28.82
2022-11-25T15:48:07.979Z,28.70
2022-11-25T15:50:34.349Z,28.75
2022-11-25T15:53:00.742Z,28.81
2022-11-25T15:55:27.095Z,28.77
2022-11-25T15:57:53.478Z,28.77
2022-11-25T16:00:19.818Z,28.82
2022-11-25T16:02:46.238Z,28.92
2022-11-25T16:05:12.556Z,28.93
2022-11-25T16:07:39.000Z,28.85
2022-11-25T16:10:05.326Z,28.78
2022-11-25T16:12:31.729Z,28.74
2022-11-25T16:14:58.097Z,28.70
2022-11-25T16:17:24.486Z,28.70
2022-11-25T16:19:50.829Z,28.66
2022-11-25T16:22:17.225Z,28.66
2022-11-25T16:24:43.592Z,28.66
2022-11-25T16:27:10.070Z,28.73
2022-11-25T16:29:36.637Z,28.88
2022-11-25T16:32:02.783Z,28.74
2022-11-25T16:34:29.089Z,28.69
2022-11-25T16:36:55.476Z,28.88
2022-11-25T16:39:21.823Z,28.87
2022-11-25T16:41:48.206Z,28.79
2022-11-25T16:44:14.547Z,28.78
2022-11-25T16:46:40.944Z,28.65
2022-11-25T16:49:07.280Z,28.79
2022-11-25T16:51:33.665Z,28.79
2022-11-25T16:54:00.128Z,28.97
2022-11-25T16:56:26.597Z,29.13
2022-11-25T16:58:52.932Z,29.06
2022-11-25T17:01:19.411Z,28.91
2022-11-25T17:03:45.710Z,28.89
2022-11-25T17:06:14.871Z,28.84
2022-11-25T17:08:38.504Z,28.76
2022-11-25T17:11:04.888Z,28.68
2022-11-25T17:13:31.232Z,28.53
2022-11-25T17:15:57.821Z,28.70
2022-11-25T17:18:23.970Z,28.96
2022-11-25T17:20:50.385Z,28.64
2022-11-25T17:23:16.925Z,28.73
2022-11-25T17:25:43.113Z,28.75
2022-11-25T17:28:09.462Z,28.63
2022-11-25T17:30:35.837Z,28.69
2022-11-25T17:33:02.176Z,28.59
2022-11-25T17:35:28.566Z,28.46
2022-11-25T17:37:54.920Z,28.49
2022-11-25T17:40:21.303Z,28.55
2022-11-25T17:42:47.650Z,28.56
2022-11-25T17:45:14.035Z,28.72
2022-11-25T17:47:40.423Z,28.88
2022-11-25T17:50:06.798Z,28.87
2022-11-25T17:52:33.139Z,28.71
2022-11-25T17:54:59.525Z,28.65
2022-11-25T17:57:25.864Z,28.50
2022-11-25T17:59:52.257Z,28.49
2022-11-25T18:02:18.755Z,28.61
2022-11-25T18:04:44.991Z,28.64
2022-11-25T18:07:11.357Z,28.53
2022-11-25T18:09:37.730Z,28.47
2022-11-25T18:12:04.067Z,28.47
2022-11-25T18:14:30.451Z,28.56
2022-11-25T18:16:56.840Z,28.63
2022-11-25T18:19:23.213Z,28.54
2022-11-25T18:21:49.561Z,28.40
2022-11-25T18:24:15.959Z,28.32
2022-11-25T18:26:42.344Z,28.22
2022-11-25T18:29:08.740Z,28.15
2022-11-25T18:31:35.087Z,28.10
2022-11-25T18:34:01.509Z,28.12
2022-11-25T18:36:27.855Z,28.06
2022-11-25T18:38:54.235Z,28.00
2022-11-25T18:41:20.582Z,28.05
2022-11-25T18:43:46.992Z,28.20
2022-11-25T18:46:13.427Z,28.34
2022-11-25T18:48:39.749Z,28.73
2022-11-25T18:51:06.095Z,29.05
2022-11-25T18:53:32.500Z,29.47
2022-11-25T18:55:58.840Z,29.68
2022-11-25T18:58:25.236Z,29.88
2022-11-25T19:00:51.614Z,29.76
2022-11-25T19:03:17.955Z,29.67
2022-11-25T19:05:44.299Z,29.70
2022-11-25T19:08:10.698Z,29.75
2022-11-25T19:10:37.044Z,29.77
2022-11-25T19:13:03.432Z,29.85
2022-11-25T19:15:29.771Z,29.91
2022-11-25T19:17:57.138Z,29.92
2022-11-25T19:20:22.493Z,29.94
2022-11-25T19:22:50.349Z,30.00
2022-11-25T19:25:15.222Z,30.01
2022-11-25T19:27:41.609Z,30.05
2022-11-25T19:30:07.957Z,30.07
2022-11-25T19:32:34.341Z,30.11
2022-11-25T19:35:00.682Z,30.14
2022-11-25T19:37:27.196Z,30.17
2022-11-25T19:39:53.534Z,30.20
2022-11-25T19:42:19.964Z,30.21
2022-11-25T19:44:46.299Z,30.26
2022-11-25T19:47:15.607Z,30.31
2022-11-25T19:49:39.022Z,30.30
2022-11-25T19:52:05.412Z,30.35
2022-11-25T19:54:32.986Z,30.42
2022-11-25T19:56:58.154Z,30.45
2022-11-25T19:59:24.501Z,30.44
2022-11-25T20:01:50.978Z,30.45
2022-11-25T20:04:17.245Z,30.52
2022-11-25T20:06:43.631Z,30.56
2022-11-25T20:09:11.083Z,30.53
2022-11-25T20:11:37.464Z,30.59
2022-11-25T20:14:03.810Z,30.63
2022-11-25T20:16:30.258Z,30.66
2022-11-25T20:18:56.541Z,30.66
2022-11-25T20:21:22.967Z,30.69
2022-11-25T20:23:49.336Z,30.69
2022-11-25T20:26:15.722Z,30.73
2022-11-25T20:28:42.066Z,30.75
2022-11-25T20:31:08.459Z,30.80
2022-11-25T20:33:34.848Z,30.80
2022-11-25T20:36:01.222Z,30.82
2022-11-25T20:38:27.564Z,30.86
2022-11-25T20:40:53.986Z,30.88
2022-11-25T20:43:20.335Z,30.91
2022-11-25T20:45:46.778Z,30.95
2022-11-25T20:48:13.083Z,30.95
2022-11-25T20:50:39.474Z,30.98
2022-11-25T20:53:05.816Z,31.01
2022-11-25T20:55:32.205Z,31.04
2022-11-25T20:57:58.540Z,31.05
2022-11-25T21:00:24.935Z,31.10
2022-11-25T21:02:51.338Z,31.12
2022-11-25T21:05:17.682Z,31.14
2022-11-25T21:07:44.066Z,31.17
2022-11-25T21:10:10.417Z,31.19
2022-11-25T21:12:36.763Z,31.24
2022-11-25T21:15:05.316Z,31.26
2022-11-25T21:17:31.655Z,31.28
2022-11-25T21:19:58.048Z,31.28
2022-11-25T21:22:24.387Z,31.31
2022-11-25T21:24:50.776Z,31.35
2022-11-25T21:27:17.159Z,31.35
2022-11-25T21:29:43.545Z,31.40
2022-11-25T21:32:09.969Z,31.41
2022-11-25T21:34:36.642Z,31.45
2022-11-25T21:37:02.611Z,31.44
2022-11-25T21:39:29.029Z,31.47
2022-11-25T21:41:55.365Z,31.51
2022-11-25T21:44:21.760Z,31.52
2022-11-25T21:46:48.116Z,31.54
2022-11-25T21:49:14.502Z,31.58
2022-11-25T21:51:40.850Z,31.59
2022-11-25T21:54:07.243Z,31.63
2022-11-25T21:56:33.588Z,31.65
2022-11-25T21:59:00.005Z,31.64
2022-11-25T22:01:26.410Z,31.66
2022-11-25T22:03:52.737Z,31.71
2022-11-25T22:06:19.103Z,31.75
2022-11-25T22:08:45.486Z,31.75
2022-11-25T22:11:11.843Z,31.76
2022-11-25T22:13:38.215Z,31.75
2022-11-25T22:16:04.649Z,31.83
2022-11-25T22:18:30.947Z,31.83
2022-11-25T22:20:57.294Z,31.82
2022-11-25T22:23:23.675Z,31.84
2022-11-25T22:25:50.023Z,31.85
2022-11-25T22:28:16.407Z,31.88
2022-11-25T22:30:42.777Z,31.90
2022-11-25T22:33:09.167Z,31.94
2022-11-25T22:35:35.530Z,31.95
2022-11-25T22:38:01.915Z,31.96
2022-11-25T22:40:28.265Z,31.97
2022-11-25T22:42:54.687Z,32.01
2022-11-25T22:45:21.064Z,32.01
2022-11-25T22:47:47.403Z,32.03
2022-11-25T22:50:13.789Z,32.10
2022-11-25T22:52:40.174Z,32.08
2022-11-25T22:55:11.085Z,32.11
2022-11-25T22:57:32.896Z,32.11
2022-11-25T22:59:59.314Z,32.11
2022-11-25T23:02:25.742Z,32.14
2022-11-25T23:04:52.048Z,32.11
2022-11-25T23:07:18.449Z,32.16
2022-11-25T23:09:44.782Z,32.15
2022-11-25T23:12:11.129Z,32.16
2022-11-25T23:14:39.896Z,32.20
2022-11-25T23:17:05.996Z,32.17
2022-11-25T23:19:32.385Z,32.25
2022-11-25T23:21:58.754Z,32.21
2022-11-25T23:24:25.138Z,32.24
2022-11-25T23:26:51.487Z,32.27
2022-11-25T23:29:17.839Z,32.29
2022-11-25T23:31:44.271Z,32.31
2022-11-25T23:34:10.587Z,32.33
2022-11-25T23:36:36.948Z,32.35
2022-11-25T23:39:03.344Z,32.36
2022-11-25T23:41:29.682Z,32.38
2022-11-25T23:43:56.074Z,32.44
2022-11-25T23:46:23.478Z,32.41
2022-11-25T23:48:48.818Z,32.43
2022-11-25T23:51:15.189Z,32.44
2022-11-25T23:53:41.568Z,32.46
2022-11-25T23:56:07.917Z,32.49
2022-11-25T23:58:34.299Z,32.52
